sensor_id;sensor_type;location;lat;lon;timestamp;pressure;altitude;pressure_sealevel;temperature;humidity
72050;BME280;59916;50.914;5.888;2022-08-01T00:00:20;100873.63;;;23.02;60.72
72050;BME280;59916;50.914;5.888;2022-08-01T00:02:46;100861.47;;;22.99;60.56
72050;BME280;59916;50.914;5.888;2022-08-01T00:05:11;100857.81;;;23.00;60.53
72050;BME280;59916;50.914;5.888;2022-08-01T00:07:37;100866.47;;;23.02;60.64
72050;BME280;59916;50.914;5.888;2022-08-01T00:10:07;100868.16;;;23.03;60.49
72050;BME280;59916;50.914;5.888;2022-08-01T00:12:33;100865.50;;;23.03;60.25
72050;BME280;59916;50.914;5.888;2022-08-01T00:14:58;100867.44;;;23.01;60.74
72050;BME280;59916;50.914;5.888;2022-08-01T00:17:24;100872.78;;;23.01;60.34
72050;BME280;59916;50.914;5.888;2022-08-01T00:19:49;100869.13;;;23.02;60.43
72050;BME280;59916;50.914;5.888;2022-08-01T00:22:15;100871.97;;;23.01;60.46
72050;BME280;59916;50.914;5.888;2022-08-01T00:24:40;100866.13;;;22.97;60.32
72050;BME280;59916;50.914;5.888;2022-08-01T00:27:05;100872.78;;;23.01;60.36
72050;BME280;59916;50.914;5.888;2022-08-01T00:29:30;100871.13;;;23.00;60.46
72050;BME280;59916;50.914;5.888;2022-08-01T00:31:56;100875.63;;;23.00;60.45
72050;BME280;59916;50.914;5.888;2022-08-01T00:34:21;100876.47;;;23.00;60.51
72050;BME280;59916;50.914;5.888;2022-08-01T00:36:47;100872.44;;;22.96;60.33
72050;BME280;59916;50.914;5.888;2022-08-01T00:39:12;100877.75;;;22.96;60.32
72050;BME280;59916;50.914;5.888;2022-08-01T00:41:37;100875.78;;;22.98;60.47
72050;BME280;59916;50.914;5.888;2022-08-01T00:44:04;100877.28;;;23.01;60.38
72050;BME280;59916;50.914;5.888;2022-08-01T00:46:30;100878.09;;;23.01;60.38
72050;BME280;59916;50.914;5.888;2022-08-01T00:48:57;100871.28;;;22.99;60.39
72050;BME280;59916;50.914;5.888;2022-08-01T00:51:22;100867.09;;;22.96;60.47
72050;BME280;59916;50.914;5.888;2022-08-01T00:53:50;100873.63;;;23.02;60.43
72050;BME280;59916;50.914;5.888;2022-08-01T00:56:16;100879.63;;;23.04;60.34
72050;BME280;59916;50.914;5.888;2022-08-01T00:58:41;100881.47;;;23.03;60.30
72050;BME280;59916;50.914;5.888;2022-08-01T01:01:07;100879.13;;;23.00;60.32
72050;BME280;59916;50.914;5.888;2022-08-01T01:03:33;100878.28;;;23.00;60.45
72050;BME280;59916;50.914;5.888;2022-08-01T01:06:30;100872.97;;;23.00;60.22
72050;BME280;59916;50.914;5.888;2022-08-01T01:09:18;100872.97;;;23.00;60.48
72050;BME280;59916;50.914;5.888;2022-08-01T01:11:59;100880.78;;;23.01;60.78
72050;BME280;59916;50.914;5.888;2022-08-01T01:14:41;100871.28;;;22.99;60.31
72050;BME280;59916;50.914;5.888;2022-08-01T01:17:13;100873.78;;;23.00;60.25
72050;BME280;59916;50.914;5.888;2022-08-01T01:19:45;100878.28;;;23.00;60.53
72050;BME280;59916;50.914;5.888;2022-08-01T01:22:17;100873.63;;;23.02;60.37
72050;BME280;59916;50.914;5.888;2022-08-01T01:24:58;100871.81;;;23.02;60.57
72050;BME280;59916;50.914;5.888;2022-08-01T01:30:00;100866.78;;;22.99;60.59
72050;BME280;59916;50.914;5.888;2022-08-01T01:32:35;100867.63;;;23.00;60.69
72050;BME280;59916;50.914;5.888;2022-08-01T01:35:06;100870.97;;;23.02;60.42
72050;BME280;59916;50.914;5.888;2022-08-01T01:37:34;100867.44;;;23.01;60.76
72050;BME280;59916;50.914;5.888;2022-08-01T01:40:01;100870.13;;;23.01;60.46
72050;BME280;59916;50.914;5.888;2022-08-01T01:42:28;100872.13;;;22.99;60.59
72050;BME280;59916;50.914;5.888;2022-08-01T01:44:55;100863.97;;;23.01;60.38
72050;BME280;59916;50.914;5.888;2022-08-01T01:47:22;100852.28;;;22.94;60.46
72050;BME280;59916;50.914;5.888;2022-08-01T01:49:49;100851.97;;;22.97;60.47
72050;BME280;59916;50.914;5.888;2022-08-01T01:52:16;100852.28;;;22.94;60.35
72050;BME280;59916;50.914;5.888;2022-08-01T01:54:46;100857.81;;;23.00;60.67
72050;BME280;59916;50.914;5.888;2022-08-01T01:57:13;100863.16;;;23.00;60.77
72050;BME280;59916;50.914;5.888;2022-08-01T01:59:40;100858.13;;;22.97;60.43
72050;BME280;59916;50.914;5.888;2022-08-01T02:02:07;100861.47;;;22.99;60.55
72050;BME280;59916;50.914;5.888;2022-08-01T02:04:35;100856.97;;;23.00;60.37
72050;BME280;59916;50.914;5.888;2022-08-01T02:07:02;100862.31;;;23.00;60.39
72050;BME280;59916;50.914;5.888;2022-08-01T02:09:28;100858.78;;;22.99;60.31
72050;BME280;59916;50.914;5.888;2022-08-01T02:11:56;100858.66;;;23.01;60.43
72050;BME280;59916;50.914;5.888;2022-08-01T02:14:23;100858.97;;;22.98;60.64
72050;BME280;59916;50.914;5.888;2022-08-01T02:16:50;100862.31;;;23.00;60.44
72050;BME280;59916;50.914;5.888;2022-08-01T02:19:19;100856.97;;;23.00;60.60
72050;BME280;59916;50.914;5.888;2022-08-01T02:21:51;100852.50;;;23.00;60.62
72050;BME280;59916;50.914;5.888;2022-08-01T02:24:40;100850.81;;;22.99;60.45
72050;BME280;59916;50.914;5.888;2022-08-01T02:27:17;100840.47;;;22.96;60.34
72050;BME280;59916;50.914;5.888;2022-08-01T02:30:00;100852.63;;;22.99;60.30
72050;BME280;59916;50.914;5.888;2022-08-01T02:32:43;100847.78;;;22.94;60.29
72050;BME280;59916;50.914;5.888;2022-08-01T02:35:27;100845.66;;;22.98;60.38
72050;BME280;59916;50.914;5.888;2022-08-01T02:37:55;100844.16;;;22.95;60.47
72050;BME280;59916;50.914;5.888;2022-08-01T02:40:22;100845.47;;;22.99;60.46
72050;BME280;59916;50.914;5.888;2022-08-01T02:42:50;100851.66;;;23.00;60.48
72050;BME280;59916;50.914;5.888;2022-08-01T02:45:24;100855.28;;;22.99;60.38
72050;BME280;59916;50.914;5.888;2022-08-01T02:47:50;100840.47;;;22.96;60.53
72050;BME280;59916;50.914;5.888;2022-08-01T02:50:17;100848.97;;;23.00;60.39
72050;BME280;59916;50.914;5.888;2022-08-01T02:52:46;100849.16;;;22.98;60.45
72050;BME280;59916;50.914;5.888;2022-08-01T02:55:13;100833.16;;;22.90;60.38
72050;BME280;59916;50.914;5.888;2022-08-01T02:57:40;100836.31;;;22.94;60.44
72050;BME280;59916;50.914;5.888;2022-08-01T03:00:07;100838.13;;;22.93;60.31
72050;BME280;59916;50.914;5.888;2022-08-01T03:02:33;100841.50;;;22.95;60.35
72050;BME280;59916;50.914;5.888;2022-08-01T03:05:00;100844.16;;;22.95;60.50
72050;BME280;59916;50.914;5.888;2022-08-01T03:07:28;100847.31;;;22.99;60.58
72050;BME280;59916;50.914;5.888;2022-08-01T03:09:55;100839.81;;;22.94;60.33
72050;BME280;59916;50.914;5.888;2022-08-01T03:12:27;100846.63;;;22.97;60.15
72050;BME280;59916;50.914;5.888;2022-08-01T03:14:56;100850.28;;;22.96;60.40
72050;BME280;59916;50.914;5.888;2022-08-01T03:17:24;100850.13;;;22.97;60.39
72050;BME280;59916;50.914;5.888;2022-08-01T03:19:52;100853.66;;;22.98;60.51
72050;BME280;59916;50.914;5.888;2022-08-01T03:22:21;100845.63;;;22.90;60.38
72050;BME280;59916;50.914;5.888;2022-08-01T03:24:50;100870.47;;;22.98;60.21
72050;BME280;59916;50.914;5.888;2022-08-01T03:27:17;100864.44;;;22.96;60.36
72050;BME280;59916;50.914;5.888;2022-08-01T03:29:44;100862.63;;;22.97;60.54
72050;BME280;59916;50.914;5.888;2022-08-01T03:32:11;100852.94;;;22.96;60.26
72050;BME280;59916;50.914;5.888;2022-08-01T03:34:37;100844.78;;;22.89;60.19
72050;BME280;59916;50.914;5.888;2022-08-01T03:37:13;100852.13;;;22.95;60.41
72050;BME280;59916;50.914;5.888;2022-08-01T03:39:47;100848.31;;;22.98;60.15
72050;BME280;59916;50.914;5.888;2022-08-01T03:42:18;100855.47;;;22.97;60.31
72050;BME280;59916;50.914;5.888;2022-08-01T03:44:48;100851.31;;;22.95;60.33
72050;BME280;59916;50.914;5.888;2022-08-01T03:47:18;100867.09;;;22.96;60.33
72050;BME280;59916;50.914;5.888;2022-08-01T03:49:48;100861.13;;;22.94;60.20
72050;BME280;59916;50.914;5.888;2022-08-01T03:52:15;100860.94;;;22.96;60.25
72050;BME280;59916;50.914;5.888;2022-08-01T03:54:47;100858.44;;;22.94;59.96
72050;BME280;59916;50.914;5.888;2022-08-01T03:57:13;100858.28;;;22.96;60.27
72050;BME280;59916;50.914;5.888;2022-08-01T03:59:39;100864.44;;;22.96;60.30
72050;BME280;59916;50.914;5.888;2022-08-01T04:02:06;100870.59;;;22.97;60.16
72050;BME280;59916;50.914;5.888;2022-08-01T04:04:31;100860.28;;;22.94;60.42
72050;BME280;59916;50.914;5.888;2022-08-01T04:06:57;100868.94;;;22.96;60.39
72050;BME280;59916;50.914;5.888;2022-08-01T04:09:29;100863.78;;;22.94;60.18
72050;BME280;59916;50.914;5.888;2022-08-01T04:11:55;100866.44;;;22.94;60.05
72050;BME280;59916;50.914;5.888;2022-08-01T04:14:20;100862.25;;;22.92;60.17
72050;BME280;59916;50.914;5.888;2022-08-01T04:16:45;100863.47;;;22.97;60.32
72050;BME280;59916;50.914;5.888;2022-08-01T04:19:11;100858.44;;;22.94;60.18
72050;BME280;59916;50.914;5.888;2022-08-01T04:21:36;100863.78;;;22.94;60.25
72050;BME280;59916;50.914;5.888;2022-08-01T04:24:06;100869.78;;;22.96;60.27
72050;BME280;59916;50.914;5.888;2022-08-01T04:26:34;100875.09;;;22.96;60.23
72050;BME280;59916;50.914;5.888;2022-08-01T04:29:02;100869.28;;;22.93;60.12
72050;BME280;59916;50.914;5.888;2022-08-01T04:31:32;100878.78;;;22.95;60.28
72050;BME280;59916;50.914;5.888;2022-08-01T04:33:59;100875.59;;;22.92;60.13
72050;BME280;59916;50.914;5.888;2022-08-01T04:36:28;100877.94;;;22.95;60.25
72050;BME280;59916;50.914;5.888;2022-08-01T04:38:57;100873.09;;;22.90;60.15
72050;BME280;59916;50.914;5.888;2022-08-01T04:41:25;100879.91;;;22.93;60.17
72050;BME280;59916;50.914;5.888;2022-08-01T04:43:51;100883.75;;;22.90;60.26
72050;BME280;59916;50.914;5.888;2022-08-01T04:46:17;100889.72;;;22.92;60.34
72050;BME280;59916;50.914;5.888;2022-08-01T04:48:43;100892.41;;;22.92;60.06
72050;BME280;59916;50.914;5.888;2022-08-01T04:51:14;100886.06;;;22.93;60.12
72050;BME280;59916;50.914;5.888;2022-08-01T04:53:41;100888.72;;;22.93;60.20
72050;BME280;59916;50.914;5.888;2022-08-01T04:56:07;100889.56;;;22.94;60.34
72050;BME280;59916;50.914;5.888;2022-08-01T04:58:32;100894.88;;;22.94;60.29
72050;BME280;59916;50.914;5.888;2022-08-01T05:00:57;100902.03;;;22.93;60.47
72050;BME280;59916;50.914;5.888;2022-08-01T05:03:23;100902.88;;;22.94;60.20
72050;BME280;59916;50.914;5.888;2022-08-01T05:05:48;100902.22;;;22.92;59.95
72050;BME280;59916;50.914;5.888;2022-08-01T05:08:13;100894.53;;;22.89;60.33
72050;BME280;59916;50.914;5.888;2022-08-01T05:10:38;100893.88;;;22.87;60.17
72050;BME280;59916;50.914;5.888;2022-08-01T05:13:04;100907.38;;;22.93;60.14
72050;BME280;59916;50.914;5.888;2022-08-01T05:15:29;100904.03;;;22.91;60.10
72050;BME280;59916;50.914;5.888;2022-08-01T05:17:55;100899.72;;;22.90;60.13
72050;BME280;59916;50.914;5.888;2022-08-01T05:20:21;100907.38;;;22.93;60.23
72050;BME280;59916;50.914;5.888;2022-08-01T05:22:46;100907.84;;;22.89;60.22
72050;BME280;59916;50.914;5.888;2022-08-01T05:25:12;100899.53;;;22.92;60.42
72050;BME280;59916;50.914;5.888;2022-08-01T05:27:37;100900.53;;;22.91;60.25
72050;BME280;59916;50.914;5.888;2022-08-01T05:30:07;100910.03;;;22.93;60.31
72050;BME280;59916;50.914;5.888;2022-08-01T05:32:33;100908.38;;;22.92;60.40
72050;BME280;59916;50.914;5.888;2022-08-01T05:34:58;100911.88;;;22.93;60.11
72050;BME280;59916;50.914;5.888;2022-08-01T05:37:24;100913.84;;;22.91;60.08
72050;BME280;59916;50.914;5.888;2022-08-01T05:39:50;100902.03;;;22.85;60.12
72050;BME280;59916;50.914;5.888;2022-08-01T05:42:15;100908.38;;;22.92;60.35
72050;BME280;59916;50.914;5.888;2022-08-01T05:44:40;100914.00;;;22.89;60.21
72050;BME280;59916;50.914;5.888;2022-08-01T05:47:06;100912.31;;;22.88;60.16
72050;BME280;59916;50.914;5.888;2022-08-01T05:49:31;100922.34;;;22.94;60.41
72050;BME280;59916;50.914;5.888;2022-08-01T05:51:56;100920.00;;;22.91;60.47
72050;BME280;59916;50.914;5.888;2022-08-01T05:54:21;100919.88;;;22.93;60.31
72050;BME280;59916;50.914;5.888;2022-08-01T05:56:47;100904.50;;;22.87;60.25
72050;BME280;59916;50.914;5.888;2022-08-01T05:59:12;100904.34;;;22.88;60.48
72050;BME280;59916;50.914;5.888;2022-08-01T06:01:37;100910.03;;;22.93;60.18
72050;BME280;59916;50.914;5.888;2022-08-01T06:04:03;100911.53;;;22.88;60.31
72050;BME280;59916;50.914;5.888;2022-08-01T06:06:28;100919.03;;;22.92;60.20
72050;BME280;59916;50.914;5.888;2022-08-01T06:08:53;100917.19;;;22.93;59.92
72050;BME280;59916;50.914;5.888;2022-08-01T06:11:19;100908.84;;;22.88;60.28
72050;BME280;59916;50.914;5.888;2022-08-01T06:13:44;100911.19;;;22.91;60.42
72050;BME280;59916;50.914;5.888;2022-08-01T06:16:09;100904.03;;;22.91;60.33
72050;BME280;59916;50.914;5.888;2022-08-01T06:18:35;100909.22;;;22.93;60.73
72050;BME280;59916;50.914;5.888;2022-08-01T06:21:00;100909.53;;;22.90;60.50
72050;BME280;59916;50.914;5.888;2022-08-01T06:23:25;100923.34;;;22.93;61.27
72050;BME280;59916;50.914;5.888;2022-08-01T06:25:54;100911.19;;;22.91;60.62
72050;BME280;59916;50.914;5.888;2022-08-01T06:28:21;100912.19;;;22.90;60.71
72050;BME280;59916;50.914;5.888;2022-08-01T06:30:46;100913.69;;;22.92;60.45
72050;BME280;59916;50.914;5.888;2022-08-01T06:33:11;100915.69;;;22.90;60.38
72050;BME280;59916;50.914;5.888;2022-08-01T06:35:37;100921.69;;;22.92;60.38
72050;BME280;59916;50.914;5.888;2022-08-01T06:38:02;100917.34;;;22.91;60.63
72050;BME280;59916;50.914;5.888;2022-08-01T06:40:28;100917.19;;;22.93;60.96
72050;BME280;59916;50.914;5.888;2022-08-01T06:42:53;100914.69;;;22.91;60.93
72050;BME280;59916;50.914;5.888;2022-08-01T06:45:19;100921.03;;;22.90;60.49
72050;BME280;59916;50.914;5.888;2022-08-01T06:47:47;100922.66;;;22.91;61.01
72050;BME280;59916;50.914;5.888;2022-08-01T06:50:13;100926.34;;;22.90;61.26
72050;BME280;59916;50.914;5.888;2022-08-01T06:52:40;100924.50;;;22.91;61.21
72050;BME280;59916;50.914;5.888;2022-08-01T06:55:05;100925.19;;;22.93;61.41
72050;BME280;59916;50.914;5.888;2022-08-01T06:57:31;100920.69;;;22.93;61.42
72050;BME280;59916;50.914;5.888;2022-08-01T06:59:57;100917.50;;;22.90;61.47
72050;BME280;59916;50.914;5.888;2022-08-01T07:02:23;100916.69;;;22.89;61.66
72050;BME280;59916;50.914;5.888;2022-08-01T07:04:48;100918.50;;;22.89;61.54
72050;BME280;59916;50.914;5.888;2022-08-01T07:07:13;100920.00;;;22.91;61.39
72050;BME280;59916;50.914;5.888;2022-08-01T07:09:38;100923.69;;;22.90;61.33
72050;BME280;59916;50.914;5.888;2022-08-01T07:12:06;100918.19;;;22.92;61.30
72050;BME280;59916;50.914;5.888;2022-08-01T07:14:32;100919.16;;;22.91;61.57
72050;BME280;59916;50.914;5.888;2022-08-01T07:16:57;100923.34;;;22.93;61.50
72050;BME280;59916;50.914;5.888;2022-08-01T07:19:22;100925.34;;;22.91;61.73
72050;BME280;59916;50.914;5.888;2022-08-01T07:21:48;100928.00;;;22.91;61.60
72050;BME280;59916;50.914;5.888;2022-08-01T07:24:14;100930.66;;;22.91;61.53
72050;BME280;59916;50.914;5.888;2022-08-01T07:26:44;100939.50;;;22.92;61.79
72050;BME280;59916;50.914;5.888;2022-08-01T07:29:10;100938.66;;;22.91;62.04
72050;BME280;59916;50.914;5.888;2022-08-01T07:31:42;100936.16;;;22.90;63.66
72050;BME280;59916;50.914;5.888;2022-08-01T07:34:07;100940.94;;;22.86;64.47
72050;BME280;59916;50.914;5.888;2022-08-01T07:36:32;100940.28;;;22.84;65.28
72050;BME280;59916;50.914;5.888;2022-08-01T07:38:58;100940.28;;;22.84;65.30
72050;BME280;59916;50.914;5.888;2022-08-01T07:41:23;100942.28;;;22.82;65.77
72050;BME280;59916;50.914;5.888;2022-08-01T07:43:48;100935.25;;;22.81;66.15
72050;BME280;59916;50.914;5.888;2022-08-01T07:46:14;100938.09;;;22.79;66.49
72050;BME280;59916;50.914;5.888;2022-08-01T07:48:39;100942.41;;;22.80;66.77
72050;BME280;59916;50.914;5.888;2022-08-01T07:51:05;100945.25;;;22.79;66.96
72050;BME280;59916;50.914;5.888;2022-08-01T07:53:30;100955.91;;;22.79;67.09
72050;BME280;59916;50.914;5.888;2022-08-01T07:55:55;100954.22;;;22.78;67.09
72050;BME280;59916;50.914;5.888;2022-08-01T07:58:21;100956.72;;;22.79;67.24
72050;BME280;59916;50.914;5.888;2022-08-01T08:00:46;100948.88;;;22.78;67.21
72050;BME280;59916;50.914;5.888;2022-08-01T08:03:11;100951.25;;;22.81;67.14
72050;BME280;59916;50.914;5.888;2022-08-01T08:05:37;100954.06;;;22.79;67.19
72050;BME280;59916;50.914;5.888;2022-08-01T08:08:05;100964.41;;;22.82;66.98
72050;BME280;59916;50.914;5.888;2022-08-01T08:10:30;100960.06;;;22.81;66.57
72050;BME280;59916;50.914;5.888;2022-08-01T08:12:56;100965.69;;;22.78;66.73
72050;BME280;59916;50.914;5.888;2022-08-01T08:15:21;100958.69;;;22.77;66.00
72050;BME280;59916;50.914;5.888;2022-08-01T08:17:46;100958.69;;;22.77;65.96
72050;BME280;59916;50.914;5.888;2022-08-01T08:20:12;100963.72;;;22.80;65.73
72050;BME280;59916;50.914;5.888;2022-08-01T08:22:37;100959.69;;;22.76;65.98
72050;BME280;59916;50.914;5.888;2022-08-01T08:25:03;100958.19;;;22.74;65.71
72050;BME280;59916;50.914;5.888;2022-08-01T08:27:28;100972.53;;;22.81;65.70
72050;BME280;59916;50.914;5.888;2022-08-01T08:29:54;100966.84;;;22.76;65.99
72050;BME280;59916;50.914;5.888;2022-08-01T08:32:19;100972.84;;;22.78;65.84
72050;BME280;59916;50.914;5.888;2022-08-01T08:34:44;100971.34;;;22.75;65.38
72050;BME280;59916;50.914;5.888;2022-08-01T08:37:10;100978.16;;;22.78;65.58
72050;BME280;59916;50.914;5.888;2022-08-01T08:39:35;100971.34;;;22.75;65.52
72050;BME280;59916;50.914;5.888;2022-08-01T08:42:04;100975.81;;;22.75;65.52
72050;BME280;59916;50.914;5.888;2022-08-01T08:44:31;100979.19;;;22.77;65.40
72050;BME280;59916;50.914;5.888;2022-08-01T08:46:57;100972.78;;;22.70;65.15
72050;BME280;59916;50.914;5.888;2022-08-01T08:49:28;100980.16;;;22.76;65.11
72050;BME280;59916;50.914;5.888;2022-08-01T08:51:58;100984.81;;;22.74;65.05
72050;BME280;59916;50.914;5.888;2022-08-01T08:54:23;100984.81;;;22.74;64.82
72050;BME280;59916;50.914;5.888;2022-08-01T08:56:50;100980.63;;;22.71;64.64
72050;BME280;59916;50.914;5.888;2022-08-01T08:59:16;100985.13;;;22.71;64.65
72050;BME280;59916;50.914;5.888;2022-08-01T09:01:42;100978.09;;;22.70;64.30
72050;BME280;59916;50.914;5.888;2022-08-01T09:04:08;100989.91;;;22.67;64.28
72050;BME280;59916;50.914;5.888;2022-08-01T09:06:34;100984.44;;;22.69;64.13
72050;BME280;59916;50.914;5.888;2022-08-01T09:08:59;100978.47;;;22.75;63.41
72050;BME280;59916;50.914;5.888;2022-08-01T09:11:25;100985.84;;;22.81;63.51
72050;BME280;59916;50.914;5.888;2022-08-01T09:14:11;100985.84;;;22.81;63.97
72050;BME280;59916;50.914;5.888;2022-08-01T09:16:43;100996.50;;;22.81;63.97
72050;BME280;59916;50.914;5.888;2022-08-01T09:19:19;100982.50;;;22.79;63.98
72050;BME280;59916;50.914;5.888;2022-08-01T09:21:59;100986.16;;;22.78;64.17
72050;BME280;59916;50.914;5.888;2022-08-01T09:24:26;100992.00;;;22.81;64.44
72050;BME280;59916;50.914;5.888;2022-08-01T09:26:52;100987.16;;;22.77;64.11
72050;BME280;59916;50.914;5.888;2022-08-01T09:29:30;100992.69;;;22.83;64.34
72050;BME280;59916;50.914;5.888;2022-08-01T09:31:56;100990.19;;;22.82;63.95
72050;BME280;59916;50.914;5.888;2022-08-01T09:34:29;100991.84;;;22.83;63.86
72050;BME280;59916;50.914;5.888;2022-08-01T09:36:57;100980.84;;;22.78;63.79
72050;BME280;59916;50.914;5.888;2022-08-01T09:39:43;100985.84;;;22.81;63.71
72050;BME280;59916;50.914;5.888;2022-08-01T09:42:26;100989.03;;;22.84;63.70
72050;BME280;59916;50.914;5.888;2022-08-01T09:44:52;100996.19;;;22.84;63.67
72050;BME280;59916;50.914;5.888;2022-08-01T09:47:18;100994.50;;;22.83;63.05
72050;BME280;59916;50.914;5.888;2022-08-01T09:49:45;100989.19;;;22.83;63.07
72050;BME280;59916;50.914;5.888;2022-08-01T09:52:20;100993.53;;;22.84;62.84
72050;BME280;59916;50.914;5.888;2022-08-01T09:55:14;100985.84;;;22.81;62.66
72050;BME280;59916;50.914;5.888;2022-08-01T09:57:55;100992.56;;;22.85;62.44
72050;BME280;59916;50.914;5.888;2022-08-01T10:00:21;100989.19;;;22.83;62.29
72050;BME280;59916;50.914;5.888;2022-08-01T10:02:46;100986.69;;;22.81;62.02
72050;BME280;59916;50.914;5.888;2022-08-01T10:05:11;100984.88;;;22.82;61.31
72050;BME280;59916;50.914;5.888;2022-08-01T10:07:56;100997.34;;;22.81;60.46
72050;BME280;59916;50.914;5.888;2022-08-01T10:10:21;100991.16;;;22.81;60.77
72050;BME280;59916;50.914;5.888;2022-08-01T10:12:47;100982.50;;;22.79;61.18
72050;BME280;59916;50.914;5.888;2022-08-01T10:15:16;100986.53;;;22.83;61.16
72050;BME280;59916;50.914;5.888;2022-08-01T10:17:46;100985.53;;;22.84;60.98
72050;BME280;59916;50.914;5.888;2022-08-01T10:20:18;100976.72;;;22.83;60.97
72050;BME280;59916;50.914;5.888;2022-08-01T10:22:45;100988.88;;;22.86;60.90
72050;BME280;59916;50.914;5.888;2022-08-01T10:25:12;100980.03;;;22.85;60.79
72050;BME280;59916;50.914;5.888;2022-08-01T10:27:42;100971.38;;;22.83;60.92
72050;BME280;59916;50.914;5.888;2022-08-01T10:30:10;100980.88;;;22.86;60.99
72050;BME280;59916;50.914;5.888;2022-08-01T10:32:36;100985.53;;;22.84;58.83
72050;BME280;59916;50.914;5.888;2022-08-01T10:35:03;100995.88;;;22.87;58.06
72050;BME280;59916;50.914;5.888;2022-08-01T10:37:29;100987.22;;;22.85;57.95
72050;BME280;59916;50.914;5.888;2022-08-01T10:39:55;100994.06;;;22.88;57.55
72050;BME280;59916;50.914;5.888;2022-08-01T10:42:21;100994.19;;;22.86;57.86
72050;BME280;59916;50.914;5.888;2022-08-01T10:44:50;100988.38;;;22.82;57.57
72050;BME280;59916;50.914;5.888;2022-08-01T10:47:23;100995.88;;;22.87;58.13
72050;BME280;59916;50.914;5.888;2022-08-01T10:50:07;100991.53;;;22.86;58.43
72050;BME280;59916;50.914;5.888;2022-08-01T10:52:36;100976.56;;;22.85;58.21
72050;BME280;59916;50.914;5.888;2022-08-01T10:55:06;100975.72;;;22.84;57.44
72050;BME280;59916;50.914;5.888;2022-08-01T10:57:42;100963.03;;;22.78;57.77
72050;BME280;59916;50.914;5.888;2022-08-01T11:00:08;100977.56;;;22.84;57.57
72050;BME280;59916;50.914;5.888;2022-08-01T11:02:33;100978.22;;;22.86;57.11
72050;BME280;59916;50.914;5.888;2022-08-01T11:05:07;100986.88;;;22.88;57.36
72050;BME280;59916;50.914;5.888;2022-08-01T11:07:54;100983.41;;;22.88;57.71
72050;BME280;59916;50.914;5.888;2022-08-01T11:10:26;100975.72;;;22.84;57.80
72050;BME280;59916;50.914;5.888;2022-08-01T11:12:55;100974.06;;;22.83;57.40
72050;BME280;59916;50.914;5.888;2022-08-01T11:15:22;100989.53;;;22.88;57.60
72050;BME280;59916;50.914;5.888;2022-08-01T11:17:53;100978.22;;;22.86;57.46
72050;BME280;59916;50.914;5.888;2022-08-01T11:20:26;100971.06;;;22.87;57.40
72050;BME280;59916;50.914;5.888;2022-08-01T11:30:38;100980.03;;;22.85;56.95
72050;BME280;59916;50.914;5.888;2022-08-01T11:33:03;100977.06;;;22.89;56.16
72050;BME280;59916;50.914;5.888;2022-08-01T11:35:31;100980.59;;;22.89;56.36
72050;BME280;59916;50.914;5.888;2022-08-01T11:37:56;100981.91;;;22.85;55.90
72050;BME280;59916;50.914;5.888;2022-08-01T11:40:30;100979.06;;;22.87;55.56
72050;BME280;59916;50.914;5.888;2022-08-01T11:45:52;100972.22;;;22.84;56.36
72050;BME280;59916;50.914;5.888;2022-08-01T11:48:21;100969.25;;;22.87;56.34
72050;BME280;59916;50.914;5.888;2022-08-01T11:50:47;100965.59;;;22.88;55.75
72050;BME280;59916;50.914;5.888;2022-08-01T11:53:14;100955.28;;;22.85;55.94
72050;BME280;59916;50.914;5.888;2022-08-01T11:55:45;100966.44;;;22.89;55.59
72050;BME280;59916;50.914;5.888;2022-08-01T11:58:11;100966.44;;;22.89;55.74
72050;BME280;59916;50.914;5.888;2022-08-01T12:00:37;100968.09;;;22.90;56.04
72050;BME280;59916;50.914;5.888;2022-08-01T12:03:06;100967.25;;;22.89;55.83
72050;BME280;59916;50.914;5.888;2022-08-01T12:05:33;100962.91;;;22.88;55.85
72050;BME280;59916;50.914;5.888;2022-08-01T12:08:02;100965.91;;;22.85;55.87
72050;BME280;59916;50.914;5.888;2022-08-01T12:10:30;100964.25;;;22.84;55.74
72050;BME280;59916;50.914;5.888;2022-08-01T12:13:40;100971.75;;;22.89;55.74
72050;BME280;59916;50.914;5.888;2022-08-01T12:16:32;100974.41;;;22.89;55.83
72050;BME280;59916;50.914;5.888;2022-08-01T12:19:00;100958.91;;;22.84;55.79
72050;BME280;59916;50.914;5.888;2022-08-01T12:21:25;100953.75;;;22.82;55.69
72050;BME280;59916;50.914;5.888;2022-08-01T12:24:03;100964.59;;;22.89;56.07
72050;BME280;59916;50.914;5.888;2022-08-01T12:26:41;100961.94;;;22.89;56.00
72050;BME280;59916;50.914;5.888;2022-08-01T12:29:06;100963.94;;;22.87;55.94
72050;BME280;59916;50.914;5.888;2022-08-01T12:31:33;100973.56;;;22.88;55.75
72050;BME280;59916;50.914;5.888;2022-08-01T12:34:25;100968.41;;;22.87;56.07
72050;BME280;59916;50.914;5.888;2022-08-01T12:36:54;100969.09;;;22.89;55.92
72050;BME280;59916;50.914;5.888;2022-08-01T12:39:19;100973.56;;;22.88;55.82
72050;BME280;59916;50.914;5.888;2022-08-01T12:41:45;100969.94;;;22.89;56.00
72050;BME280;59916;50.914;5.888;2022-08-01T12:44:13;100965.44;;;22.90;55.75
72050;BME280;59916;50.914;5.888;2022-08-01T12:46:42;100961.94;;;22.89;55.97
72050;BME280;59916;50.914;5.888;2022-08-01T12:49:07;100961.94;;;22.89;56.11
72050;BME280;59916;50.914;5.888;2022-08-01T12:51:33;100956.63;;;22.89;55.88
72050;BME280;59916;50.914;5.888;2022-08-01T12:53:59;100956.31;;;22.92;56.05
72050;BME280;59916;50.914;5.888;2022-08-01T12:56:31;100955.63;;;22.90;55.92
72050;BME280;59916;50.914;5.888;2022-08-01T12:58:58;100952.97;;;22.90;56.01
72050;BME280;59916;50.914;5.888;2022-08-01T13:01:28;100954.63;;;22.91;55.99
72050;BME280;59916;50.914;5.888;2022-08-01T13:04:01;100957.97;;;22.93;55.97
72050;BME280;59916;50.914;5.888;2022-08-01T13:06:29;100956.63;;;22.89;56.15
72050;BME280;59916;50.914;5.888;2022-08-01T13:09:06;100959.94;;;22.91;56.06